Time;durP1;ratioP1;P1;durP2;ratioP2;P2;SDS_P1;SDS_P2;PMS_P1;PMS_P2;Temp;Humidity;BMP_temperature;BMP_pressure;BME280_temperature;BME280_humidity;BME280_pressure;Samples;Min_cycle;Max_cycle;Signal;HPM_P1;HPM_P2
2022/01/09 00:01:29;;;;;;;583.57;530.93;;;6.50;99.90;;;;;;4966596;28;20195;-78
2022/01/09 00:03:55;;;;;;;577.67;526.07;;;6.60;99.90;;;;;;5002175;28;20184;-79
2022/01/09 00:06:21;;;;;;;586.03;534.40;;;6.70;99.90;;;;;;5000501;28;20202;-80
2022/01/09 00:08:47;;;;;;;572.77;521.13;;;6.70;99.90;;;;;;5000913;28;20931;-79
2022/01/09 00:11:18;;;;;;;580.20;527.63;;;6.80;99.90;;;;;;5001272;28;20188;-79
2022/01/09 00:13:45;;;;;;;580.90;529.60;;;6.90;99.90;;;;;;4999475;28;20246;-79
2022/01/09 00:16:10;;;;;;;575.17;523.40;;;7.00;99.90;;;;;;4999023;28;20210;-79
2022/01/09 00:18:36;;;;;;;573.40;522.50;;;7.00;99.90;;;;;;4998642;28;20688;-79
2022/01/09 00:21:05;;;;;;;570.53;519.60;;;7.00;99.90;;;;;;5000976;28;20218;-79
2022/01/09 00:23:35;;;;;;;511.47;465.40;;;7.10;99.90;;;;;;5002446;28;20214;-79
2022/01/09 00:26:01;;;;;;;500.13;455.30;;;7.10;99.90;;;;;;5001248;28;20330;-79
2022/01/09 00:28:27;;;;;;;490.33;447.30;;;7.10;99.90;;;;;;4999283;28;20583;-78
2022/01/09 00:30:53;;;;;;;468.63;427.10;;;7.10;99.90;;;;;;5002455;28;20179;-79
2022/01/09 00:33:22;;;;;;;450.90;411.47;;;7.10;99.90;;;;;;4999078;28;20198;-79
2022/01/09 00:35:49;;;;;;;408.77;371.93;;;7.10;99.90;;;;;;5000129;28;20195;-79
2022/01/09 00:38:14;;;;;;;391.13;357.33;;;7.10;99.90;;;;;;5001465;28;20206;-79
2022/01/09 00:40:40;;;;;;;372.10;339.93;;;7.10;99.90;;;;;;4984609;28;20200;-79
2022/01/09 00:43:09;;;;;;;348.90;320.63;;;7.20;99.90;;;;;;5000063;28;20705;-79
2022/01/09 00:45:39;;;;;;;342.90;315.97;;;7.20;99.90;;;;;;4984874;28;20215;-79
2022/01/09 00:48:06;;;;;;;333.30;306.90;;;7.20;99.90;;;;;;5001192;28;20295;-79
2022/01/09 00:50:33;;;;;;;323.67;298.37;;;7.20;99.90;;;;;;4999422;28;20238;-79
2022/01/09 00:52:59;;;;;;;318.10;294.67;;;7.20;99.90;;;;;;5004365;28;20271;-80
2022/01/09 00:55:25;;;;;;;313.43;289.33;;;7.20;99.90;;;;;;4998203;28;20208;-78
2022/01/09 00:57:50;;;;;;;305.37;282.77;;;7.20;99.90;;;;;;5001302;28;20265;-78
2022/01/09 01:00:16;;;;;;;302.27;279.93;;;7.20;99.90;;;;;;4997739;28;20210;-80
2022/01/09 01:02:42;;;;;;;288.70;267.50;;;7.20;99.90;;;;;;4999208;28;20201;-78
2022/01/09 01:05:08;;;;;;;272.70;252.07;;;7.20;99.90;;;;;;5000243;28;20196;-80
2022/01/09 01:07:34;;;;;;;273.90;254.07;;;7.20;99.90;;;;;;4985919;28;20199;-78
2022/01/09 01:10:00;;;;;;;270.40;251.83;;;7.20;99.90;;;;;;4983059;28;20728;-78
2022/01/09 01:12:28;;;;;;;274.70;254.50;;;7.20;99.90;;;;;;4998823;28;20275;-79
2022/01/09 01:14:53;;;;;;;266.20;248.10;;;7.10;99.90;;;;;;5000130;28;21272;-79
2022/01/09 01:17:21;;;;;;;259.17;240.67;;;7.20;99.90;;;;;;4998079;28;20218;-79
2022/01/09 01:19:47;;;;;;;247.83;230.70;;;7.10;99.90;;;;;;5003134;28;20183;-79
2022/01/09 01:22:13;;;;;;;238.07;221.27;;;7.10;99.90;;;;;;5004222;28;20245;-79
2022/01/09 01:24:39;;;;;;;221.70;206.67;;;7.20;99.90;;;;;;5006145;28;20195;-79
2022/01/09 01:27:05;;;;;;;202.73;188.87;;;7.20;99.90;;;;;;4971253;28;20215;-79
2022/01/09 01:29:31;;;;;;;187.87;174.67;;;7.10;99.90;;;;;;5004549;28;20261;-80
2022/01/09 01:31:56;;;;;;;175.17;162.37;;;7.10;99.90;;;;;;5006466;28;20251;-79
2022/01/09 01:34:22;;;;;;;168.40;157.17;;;7.10;99.90;;;;;;4984692;28;20218;-79
2022/01/09 01:36:48;;;;;;;166.77;154.80;;;7.10;99.90;;;;;;5002249;28;20196;-78
2022/01/09 01:39:13;;;;;;;160.60;149.03;;;7.10;99.90;;;;;;4985870;28;20973;-79
2022/01/09 01:41:39;;;;;;;159.20;147.63;;;7.20;99.90;;;;;;5004625;28;20204;-78
2022/01/09 01:44:09;;;;;;;154.20;143.40;;;7.10;99.90;;;;;;5001377;28;20192;-79
2022/01/09 01:46:35;;;;;;;151.80;141.17;;;7.20;99.90;;;;;;5002323;28;20194;-80
2022/01/09 01:49:01;;;;;;;149.07;138.83;;;7.10;99.90;;;;;;5001914;28;20234;-79
2022/01/09 01:51:27;;;;;;;149.07;138.37;;;7.10;99.90;;;;;;5004209;28;20228;-80
2022/01/09 01:53:55;;;;;;;145.10;135.27;;;7.10;99.90;;;;;;5003610;28;20208;-78
2022/01/09 01:56:22;;;;;;;142.27;132.07;;;7.10;99.90;;;;;;4985388;28;20684;-79
2022/01/09 01:58:49;;;;;;;141.60;131.37;;;7.10;99.90;;;;;;4999729;28;20188;-78
2022/01/09 02:01:14;;;;;;;138.50;128.43;;;7.10;99.90;;;;;;5002676;28;21612;-79
2022/01/09 02:03:40;;;;;;;135.60;126.47;;;7.10;99.90;;;;;;5002980;28;20191;-79
2022/01/09 02:06:06;;;;;;;131.80;123.50;;;7.10;99.90;;;;;;5002691;28;20261;-77
2022/01/09 02:08:32;;;;;;;133.63;124.50;;;7.10;99.90;;;;;;5002751;28;20226;-78
2022/01/09 02:10:59;;;;;;;133.00;123.70;;;7.00;99.90;;;;;;5003879;28;20192;-80
2022/01/09 02:13:24;;;;;;;129.20;120.17;;;7.10;99.90;;;;;;5003572;28;20191;-79
2022/01/09 02:15:56;;;;;;;126.87;118.47;;;7.10;99.90;;;;;;5003122;28;20707;-80
2022/01/09 02:18:22;;;;;;;126.60;117.50;;;7.10;99.90;;;;;;4984827;28;20188;-79
2022/01/09 02:20:50;;;;;;;123.07;114.50;;;7.10;99.90;;;;;;4987866;28;20655;-79
2022/01/09 02:23:17;;;;;;;122.43;113.67;;;7.10;99.90;;;;;;5000797;28;20567;-80
2022/01/09 02:25:44;;;;;;;117.23;109.53;;;7.10;99.90;;;;;;5001589;28;20645;-79
2022/01/09 02:28:11;;;;;;;116.73;107.87;;;7.10;99.90;;;;;;4997793;28;20204;-79
2022/01/09 02:30:37;;;;;;;113.57;106.33;;;7.20;99.90;;;;;;5002784;28;20285;-79
2022/01/09 02:33:05;;;;;;;107.70;100.73;;;7.10;99.90;;;;;;4998550;28;20307;-79
2022/01/09 02:35:32;;;;;;;109.10;101.67;;;7.10;99.90;;;;;;4984871;28;20745;-78
2022/01/09 02:37:58;;;;;;;106.97;99.87;;;7.10;99.90;;;;;;5001292;28;20679;-79
2022/01/09 02:40:24;;;;;;;101.47;95.37;;;7.10;99.90;;;;;;4968267;28;20181;-79
2022/01/09 02:42:51;;;;;;;103.43;97.00;;;7.00;99.90;;;;;;4984253;28;20291;-80
2022/01/09 02:45:20;;;;;;;101.73;94.63;;;7.00;99.90;;;;;;4985356;28;20666;-79
2022/01/09 02:47:47;;;;;;;100.40;94.07;;;7.00;99.90;;;;;;4980898;28;20188;-78
2022/01/09 02:52:51;;;;;;;96.67;89.97;;;7.00;99.90;;;;;;4984718;28;20733;-79
2022/01/09 02:55:18;;;;;;;95.40;89.20;;;7.00;99.90;;;;;;4964794;28;20720;-80
2022/01/09 02:57:46;;;;;;;92.17;86.50;;;7.00;99.90;;;;;;4999049;28;20226;-79
2022/01/09 03:00:19;;;;;;;90.43;84.60;;;6.90;99.90;;;;;;4998432;28;20184;-78
2022/01/09 03:02:45;;;;;;;91.60;85.17;;;6.90;99.90;;;;;;4997170;28;20187;-79
2022/01/09 03:05:11;;;;;;;88.13;82.30;;;6.90;99.90;;;;;;4996446;28;20659;-80
2022/01/09 03:07:38;;;;;;;85.83;80.57;;;6.80;99.90;;;;;;4986756;28;20212;-80
2022/01/09 03:10:06;;;;;;;85.83;80.30;;;6.80;99.90;;;;;;4998508;28;20271;-79
2022/01/09 03:12:32;;;;;;;83.60;78.60;;;6.70;99.90;;;;;;4983084;28;20209;-80
2022/01/09 03:14:57;;;;;;;80.77;75.93;;;6.80;99.90;;;;;;4983476;28;20223;-79
2022/01/09 03:17:23;;;;;;;76.63;71.67;;;6.70;99.90;;;;;;4998302;28;20267;-79
2022/01/09 03:19:49;;;;;;;72.30;67.40;;;6.70;99.90;;;;;;4979855;28;20196;-78
2022/01/09 03:22:14;;;;;;;70.07;65.27;;;6.70;99.90;;;;;;4981281;28;20195;-78
2022/01/09 03:24:42;;;;;;;69.93;64.10;;;6.70;99.90;;;;;;4979730;28;20188;-80
2022/01/09 03:27:08;;;;;;;68.47;64.33;;;6.60;99.90;;;;;;4982166;28;20933;-78
2022/01/09 03:29:34;;;;;;;68.10;62.87;;;6.70;99.90;;;;;;4980778;28;20231;-79
2022/01/09 03:32:00;;;;;;;65.90;61.60;;;6.70;99.90;;;;;;4997886;28;20196;-79
2022/01/09 03:34:26;;;;;;;66.23;61.70;;;6.70;99.90;;;;;;4968873;28;20702;-79
2022/01/09 03:36:52;;;;;;;65.33;60.07;;;6.70;99.90;;;;;;4984296;28;20203;-78
2022/01/09 03:39:18;;;;;;;63.80;58.77;;;6.70;99.90;;;;;;4983860;28;20194;-79
2022/01/09 03:41:43;;;;;;;64.30;59.80;;;6.70;99.90;;;;;;4988987;28;20776;-80
2022/01/09 03:44:09;;;;;;;63.63;58.63;;;6.70;99.90;;;;;;4999581;28;20560;-78
2022/01/09 03:46:35;;;;;;;60.77;57.17;;;6.70;99.90;;;;;;4998588;28;20251;-79
2022/01/09 03:49:00;;;;;;;59.77;55.00;;;6.70;99.90;;;;;;4999335;28;20283;-80
2022/01/09 03:51:32;;;;;;;57.63;54.10;;;6.70;99.90;;;;;;5000343;28;20196;-79
2022/01/09 03:53:59;;;;;;;57.93;54.47;;;6.60;99.90;;;;;;5002999;28;20247;-79
2022/01/09 03:56:25;;;;;;;56.50;53.03;;;6.60;99.90;;;;;;5001239;28;20267;-78
2022/01/09 03:58:51;;;;;;;56.77;52.30;;;6.60;99.90;;;;;;4997841;28;20740;-79
2022/01/09 04:01:16;;;;;;;58.20;54.37;;;6.60;99.90;;;;;;5001767;28;20291;-79
2022/01/09 04:03:43;;;;;;;58.47;53.60;;;6.60;99.90;;;;;;4982443;28;20231;-78
2022/01/09 04:06:08;;;;;;;57.93;54.20;;;6.50;99.90;;;;;;5003174;28;20966;-80
2022/01/09 04:08:34;;;;;;;57.63;53.63;;;6.50;99.90;;;;;;4998501;28;20184;-78
2022/01/09 04:11:05;;;;;;;55.83;51.60;;;6.50;99.90;;;;;;4997247;28;20199;-81
2022/01/09 04:13:30;;;;;;;56.87;52.83;;;6.50;99.90;;;;;;4998834;28;20220;-79
2022/01/09 04:15:56;;;;;;;55.00;51.40;;;6.50;99.90;;;;;;4999661;28;20199;-79
2022/01/09 04:18:24;;;;;;;56.70;52.27;;;6.50;99.90;;;;;;4999351;28;20200;-79
2022/01/09 04:20:52;;;;;;;54.87;51.13;;;6.50;99.90;;;;;;5000366;28;20203;-79
2022/01/09 04:23:18;;;;;;;56.50;52.03;;;6.40;99.90;;;;;;4999911;28;20192;-79
2022/01/09 04:25:45;;;;;;;52.77;48.87;;;6.40;99.90;;;;;;5002773;28;20541;-81
2022/01/09 04:28:11;;;;;;;52.17;48.73;;;6.40;99.90;;;;;;5000893;28;20311;-79
2022/01/09 04:30:38;;;;;;;53.73;50.37;;;6.40;99.90;;;;;;5000255;28;20249;-80
2022/01/09 04:33:04;;;;;;;52.33;48.20;;;6.40;99.90;;;;;;4998471;28;20584;-79
2022/01/09 04:35:30;;;;;;;50.87;47.33;;;6.40;99.90;;;;;;5003089;28;20692;-78
2022/01/09 04:37:56;;;;;;;52.40;48.63;;;6.40;99.90;;;;;;5001112;28;20188;-79
2022/01/09 04:40:22;;;;;;;51.57;47.80;;;6.40;99.90;;;;;;4999008;28;20192;-79
2022/01/09 04:43:00;;;;;;;50.07;46.90;;;6.40;99.90;;;;;;4999969;28;20208;-79
2022/01/09 04:45:28;;;;;;;50.60;47.23;;;6.50;99.90;;;;;;5000313;28;20650;-79
2022/01/09 04:47:55;;;;;;;50.63;47.03;;;6.50;99.90;;;;;;4999850;28;20196;-79
2022/01/09 04:50:25;;;;;;;50.20;46.77;;;6.50;99.90;;;;;;4982334;28;20191;-79
2022/01/09 04:52:54;;;;;;;51.83;48.17;;;6.40;99.90;;;;;;5003038;28;20737;-78
2022/01/09 04:55:20;;;;;;;53.10;48.80;;;6.40;99.90;;;;;;4983748;28;20258;-80
2022/01/09 04:57:46;;;;;;;50.00;47.00;;;6.40;99.90;;;;;;4997260;28;20211;-79
2022/01/09 05:00:12;;;;;;;51.90;48.07;;;6.40;99.90;;;;;;4998582;28;20824;-79
2022/01/09 05:02:38;;;;;;;49.43;46.07;;;6.40;99.90;;;;;;4998918;28;20629;-79
2022/01/09 05:05:05;;;;;;;45.57;42.17;;;6.50;99.90;;;;;;4998809;28;20210;-79
2022/01/09 05:07:31;;;;;;;48.10;43.77;;;6.50;99.90;;;;;;4997835;28;20669;-79
2022/01/09 05:09:57;;;;;;;46.83;43.23;;;6.50;99.90;;;;;;4998707;28;20215;-79
2022/01/09 05:12:23;;;;;;;48.23;44.60;;;6.50;99.90;;;;;;4998580;28;20211;-79
2022/01/09 05:14:48;;;;;;;47.97;44.00;;;6.50;99.90;;;;;;5000095;28;20310;-80
2022/01/09 05:17:14;;;;;;;48.00;43.70;;;6.50;99.90;;;;;;4998621;28;20279;-78
2022/01/09 05:19:40;;;;;;;46.57;43.00;;;6.60;99.90;;;;;;4980526;28;20318;-80
2022/01/09 05:22:08;;;;;;;48.10;44.23;;;6.60;99.90;;;;;;5000742;28;20643;-79
2022/01/09 05:24:35;;;;;;;47.43;43.73;;;6.60;99.90;;;;;;4999427;28;20196;-79
2022/01/09 05:27:02;;;;;;;48.80;45.30;;;6.60;99.90;;;;;;4999910;28;20207;-79
2022/01/09 05:29:27;;;;;;;45.63;41.80;;;6.60;99.90;;;;;;4997817;28;20223;-79
2022/01/09 05:31:53;;;;;;;45.43;42.10;;;6.60;99.90;;;;;;4966554;28;20658;-78
2022/01/09 05:34:19;;;;;;;45.77;42.40;;;6.70;99.90;;;;;;4999401;28;20251;-78
2022/01/09 05:36:45;;;;;;;43.63;40.53;;;6.70;99.90;;;;;;4999089;28;20179;-79
2022/01/09 05:39:10;;;;;;;44.40;40.80;;;6.70;99.90;;;;;;4998385;28;20183;-80
2022/01/09 05:41:37;;;;;;;42.87;39.63;;;6.70;99.90;;;;;;4996882;28;20196;-79
2022/01/09 05:44:03;;;;;;;42.23;38.97;;;6.70;99.90;;;;;;4983668;28;20192;-79
2022/01/09 05:46:28;;;;;;;42.73;39.40;;;6.70;99.90;;;;;;5001691;28;20204;-79
2022/01/09 05:48:54;;;;;;;42.67;39.20;;;6.70;99.90;;;;;;4999753;28;20220;-78
2022/01/09 05:51:20;;;;;;;40.83;37.90;;;6.70;99.90;;;;;;4990428;28;20785;-79
2022/01/09 05:53:45;;;;;;;41.47;37.93;;;6.70;99.90;;;;;;5000625;28;20195;-79
2022/01/09 05:56:11;;;;;;;40.17;37.10;;;6.70;99.90;;;;;;4988609;28;20192;-79
2022/01/09 05:58:37;;;;;;;41.03;37.80;;;6.70;99.90;;;;;;4996815;28;20595;-79
2022/01/09 06:01:04;;;;;;;42.10;38.67;;;6.70;99.90;;;;;;4999322;28;20698;-80
2022/01/09 06:03:30;;;;;;;40.37;37.37;;;6.70;99.90;;;;;;5001106;28;20196;-79
2022/01/09 06:05:55;;;;;;;39.40;36.40;;;6.80;99.90;;;;;;5001151;28;20656;-79
2022/01/09 06:08:21;;;;;;;40.50;37.43;;;6.70;99.90;;;;;;5003505;28;20192;-80
2022/01/09 06:10:47;;;;;;;40.47;36.90;;;6.70;99.90;;;;;;4985794;28;20208;-79
2022/01/09 06:13:12;;;;;;;38.80;36.17;;;6.70;99.90;;;;;;5000974;28;20832;-78
2022/01/09 06:15:38;;;;;;;38.60;35.37;;;6.70;99.90;;;;;;5003643;28;20295;-78
2022/01/09 06:18:05;;;;;;;36.03;33.47;;;6.70;99.90;;;;;;4987765;28;20507;-79
2022/01/09 06:20:30;;;;;;;35.97;33.57;;;6.70;99.90;;;;;;4993591;28;20728;-78
2022/01/09 06:22:56;;;;;;;34.40;31.27;;;6.80;99.90;;;;;;5004656;28;20184;-80
2022/01/09 06:25:22;;;;;;;36.30;33.63;;;6.70;99.90;;;;;;5002217;28;20192;-78
2022/01/09 06:27:48;;;;;;;34.83;32.47;;;6.70;99.90;;;;;;4987124;28;20280;-79
2022/01/09 06:30:14;;;;;;;34.70;31.60;;;6.70;99.90;;;;;;4984230;28;20227;-77
2022/01/09 06:32:40;;;;;;;33.50;30.83;;;6.70;99.90;;;;;;5003443;28;20651;-79
2022/01/09 06:35:07;;;;;;;35.57;32.33;;;6.70;99.90;;;;;;5001773;28;20223;-79
2022/01/09 06:37:33;;;;;;;34.60;31.77;;;6.70;99.90;;;;;;4987391;28;20202;-78
2022/01/09 06:39:59;;;;;;;34.17;31.80;;;6.70;99.90;;;;;;5002703;28;20198;-79
2022/01/09 06:42:25;;;;;;;33.27;30.53;;;6.70;99.90;;;;;;5001217;28;20701;-78
2022/01/09 06:44:51;;;;;;;33.30;30.57;;;6.80;99.90;;;;;;4985003;28;20188;-79
2022/01/09 06:47:17;;;;;;;33.47;30.27;;;6.70;99.90;;;;;;5002314;28;20666;-79
2022/01/09 06:49:43;;;;;;;33.17;30.37;;;6.70;99.90;;;;;;5002466;28;20188;-79
2022/01/09 06:52:08;;;;;;;32.00;29.20;;;6.70;99.90;;;;;;5002888;28;20800;-78
2022/01/09 06:54:34;;;;;;;31.23;28.57;;;6.70;99.90;;;;;;5000718;28;20286;-79
2022/01/09 06:57:00;;;;;;;31.00;28.50;;;6.70;99.90;;;;;;5001806;28;20208;-78
2022/01/09 06:59:26;;;;;;;32.47;29.30;;;6.70;99.90;;;;;;5003797;28;20242;-80
2022/01/09 07:01:51;;;;;;;31.07;28.73;;;6.70;99.90;;;;;;5000816;28;20957;-79
2022/01/09 07:04:17;;;;;;;30.40;27.93;;;6.70;99.90;;;;;;5004356;28;20199;-79
2022/01/09 07:06:42;;;;;;;31.80;28.73;;;6.80;99.90;;;;;;4984028;28;20230;-79
2022/01/09 07:09:08;;;;;;;30.57;27.97;;;6.70;99.90;;;;;;5000768;28;20203;-79
2022/01/09 07:11:34;;;;;;;29.77;27.53;;;6.70;99.90;;;;;;5003301;28;20200;-79
2022/01/09 07:14:00;;;;;;;33.27;30.00;;;6.70;99.90;;;;;;5000448;28;20269;-79
2022/01/09 07:16:26;;;;;;;34.73;31.80;;;6.60;99.90;;;;;;4991554;28;20645;-79
2022/01/09 07:18:51;;;;;;;35.43;32.80;;;6.50;99.90;;;;;;4986946;28;20211;-80
2022/01/09 07:21:17;;;;;;;34.17;31.67;;;6.60;99.90;;;;;;5002872;28;20305;-80
2022/01/09 07:23:43;;;;;;;35.20;31.90;;;6.60;99.90;;;;;;5000827;28;20215;-80
2022/01/09 07:26:09;;;;;;;33.40;30.57;;;6.60;99.90;;;;;;4999446;28;20275;-79
2022/01/09 07:28:34;;;;;;;32.43;30.20;;;6.60;99.90;;;;;;5005630;28;20246;-79
2022/01/09 07:31:00;;;;;;;31.77;29.20;;;6.60;99.90;;;;;;5000129;28;20266;-80
2022/01/09 07:33:26;;;;;;;30.77;28.57;;;6.50;99.90;;;;;;5002888;28;20236;-78
2022/01/09 07:35:51;;;;;;;33.03;30.50;;;6.50;99.90;;;;;;5001932;28;20222;-80
2022/01/09 07:38:17;;;;;;;33.90;30.97;;;6.50;99.90;;;;;;5000288;28;20199;-80
2022/01/09 07:40:43;;;;;;;32.40;29.80;;;6.50;99.90;;;;;;5001096;28;20704;-79
2022/01/09 07:43:08;;;;;;;32.13;29.80;;;6.50;99.90;;;;;;5001508;28;20261;-80
2022/01/09 07:45:35;;;;;;;32.07;29.80;;;6.60;99.90;;;;;;4969004;28;20270;-80
2022/01/09 07:48:02;;;;;;;34.77;31.67;;;6.60;99.90;;;;;;5001175;28;20195;-80
2022/01/09 07:50:28;;;;;;;36.23;33.17;;;6.60;99.90;;;;;;4999803;28;20608;-78
2022/01/09 07:52:54;;;;;;;36.37;33.73;;;6.60;99.90;;;;;;5002117;28;21097;-79
2022/01/09 07:55:22;;;;;;;35.47;32.47;;;6.60;99.90;;;;;;5000280;28;20215;-80
2022/01/09 07:57:48;;;;;;;37.17;34.13;;;6.60;99.90;;;;;;4968273;28;20758;-80
2022/01/09 08:00:15;;;;;;;37.63;34.73;;;6.60;99.90;;;;;;4982494;28;20196;-80
2022/01/09 08:02:42;;;;;;;37.53;34.70;;;6.60;99.90;;;;;;5001849;28;20271;-79
2022/01/09 08:05:08;;;;;;;36.03;32.93;;;6.50;99.90;;;;;;4992111;28;21061;-79
2022/01/09 08:07:34;;;;;;;34.67;31.40;;;6.60;99.90;;;;;;5003057;28;20535;-79
2022/01/09 08:10:00;;;;;;;34.87;31.60;;;6.50;99.90;;;;;;5002241;28;20202;-79
2022/01/09 08:12:25;;;;;;;35.77;32.77;;;6.60;99.90;;;;;;5001590;28;20212;-80
2022/01/09 08:14:51;;;;;;;32.90;30.33;;;6.60;99.90;;;;;;5001041;28;20219;-81
2022/01/09 08:17:17;;;;;;;33.57;30.67;;;6.60;99.90;;;;;;4958152;28;20195;-82
2022/01/09 08:19:43;;;;;;;32.47;29.43;;;6.60;99.90;;;;;;5002413;28;20299;-80
2022/01/09 08:22:09;;;;;;;33.57;30.53;;;6.60;99.90;;;;;;5003828;28;20294;-80
2022/01/09 08:24:36;;;;;;;35.53;31.87;;;6.60;99.90;;;;;;4999740;28;20188;-80
2022/01/09 08:27:02;;;;;;;34.03;31.17;;;6.60;99.90;;;;;;5001422;28;20538;-79
2022/01/09 08:29:28;;;;;;;32.27;29.67;;;6.60;99.90;;;;;;5001811;28;20913;-81
2022/01/09 08:31:54;;;;;;;32.67;30.03;;;6.60;99.90;;;;;;5001377;28;20310;-81
2022/01/09 08:34:20;;;;;;;30.57;27.50;;;6.70;99.90;;;;;;5000020;28;20330;-80
2022/01/09 08:36:46;;;;;;;28.20;25.70;;;6.70;99.90;;;;;;4983855;28;20211;-80
2022/01/09 08:39:12;;;;;;;28.70;25.87;;;6.80;99.90;;;;;;4998955;28;20263;-79
2022/01/09 08:41:38;;;;;;;29.43;26.97;;;6.80;99.90;;;;;;4997890;28;20251;-81
2022/01/09 08:44:05;;;;;;;29.07;26.17;;;6.80;99.90;;;;;;4989454;28;20211;-81
2022/01/09 08:46:35;;;;;;;27.87;25.03;;;6.80;99.90;;;;;;5000417;28;20960;-80
2022/01/09 08:49:02;;;;;;;25.00;23.03;;;6.80;99.90;;;;;;4997513;28;20188;-79
2022/01/09 08:51:29;;;;;;;24.50;22.07;;;6.90;99.90;;;;;;4999077;28;20235;-81
2022/01/09 08:53:56;;;;;;;25.40;21.03;;;6.80;99.90;;;;;;5001776;28;20196;-78
2022/01/09 08:56:23;;;;;;;24.13;22.07;;;6.80;99.90;;;;;;5001611;28;20207;-80
2022/01/09 08:58:50;;;;;;;24.17;21.47;;;6.80;99.90;;;;;;5000105;28;20188;-80
2022/01/09 09:01:17;;;;;;;23.60;20.57;;;6.80;99.90;;;;;;4999698;28;20184;-79
2022/01/09 09:03:43;;;;;;;23.67;21.53;;;6.90;99.90;;;;;;4999609;28;20207;-80
2022/01/09 09:06:13;;;;;;;29.23;22.03;;;6.90;99.90;;;;;;5000064;28;20759;-80
2022/01/09 09:08:40;;;;;;;24.10;21.60;;;6.90;99.90;;;;;;4985973;28;20229;-79
2022/01/09 09:11:07;;;;;;;24.17;21.77;;;6.90;99.90;;;;;;4999905;28;20179;-80
2022/01/09 09:13:32;;;;;;;23.77;21.50;;;7.00;99.90;;;;;;5000476;28;20205;-80
2022/01/09 09:15:59;;;;;;;29.10;21.97;;;7.00;99.90;;;;;;5003627;28;20633;-79
2022/01/09 09:18:25;;;;;;;27.27;21.17;;;7.00;99.90;;;;;;4999982;28;20207;-79
2022/01/09 09:20:50;;;;;;;23.57;21.03;;;7.00;99.90;;;;;;4985174;28;20307;-80
2022/01/09 09:23:16;;;;;;;23.20;21.33;;;7.00;99.90;;;;;;5002629;28;20219;-78
2022/01/09 09:25:42;;;;;;;27.23;21.93;;;7.10;99.90;;;;;;4982853;28;20206;-79
2022/01/09 09:28:08;;;;;;;22.00;19.50;;;7.10;99.90;;;;;;5002768;28;20759;-79
2022/01/09 09:30:35;;;;;;;23.97;18.67;;;7.10;99.90;;;;;;5001561;28;20195;-79
2022/01/09 09:33:02;;;;;;;22.50;19.20;;;7.20;99.90;;;;;;5000670;28;20223;-79
2022/01/09 09:35:28;;;;;;;19.30;17.60;;;7.20;99.90;;;;;;5002152;28;20294;-80
2022/01/09 09:37:54;;;;;;;19.33;17.73;;;7.20;99.90;;;;;;5001180;28;20314;-79
2022/01/09 09:40:19;;;;;;;24.23;17.57;;;7.30;99.90;;;;;;5005333;28;20183;-81
2022/01/09 09:42:45;;;;;;;45.67;41.93;;;7.30;99.90;;;;;;5003627;28;20214;-80
2022/01/09 09:45:12;;;;;;;363.73;344.80;;;7.30;99.90;;;;;;5003762;28;20208;-80
2022/01/09 09:47:40;;;;;;;362.47;343.73;;;7.10;99.90;;;;;;5004031;28;20194;-78
2022/01/09 09:50:10;;;;;;;128.53;121.57;;;6.90;99.90;;;;;;5005021;28;20222;-80
2022/01/09 09:52:36;;;;;;;122.27;115.67;;;6.90;99.90;;;;;;5005476;28;20233;-79
2022/01/09 09:55:02;;;;;;;108.77;101.43;;;6.90;99.90;;;;;;4984567;28;20216;-80
2022/01/09 09:57:28;;;;;;;100.90;94.53;;;6.90;99.90;;;;;;5003218;28;20775;-80
2022/01/09 10:00:10;;;;;;;122.00;115.57;;;6.80;99.90;;;;;;5003232;28;20226;-80
2022/01/09 10:02:48;;;;;;;145.07;136.37;;;6.80;99.90;;;;;;5004322;28;20680;-80
2022/01/09 10:05:19;;;;;;;164.40;155.70;;;6.80;99.90;;;;;;5001802;28;20277;-80
2022/01/09 10:07:45;;;;;;;160.83;152.23;;;6.80;99.90;;;;;;5005596;28;20310;-80
2022/01/09 10:10:28;;;;;;;163.40;154.70;;;6.80;99.90;;;;;;5002364;28;20192;-79
2022/01/09 10:13:12;;;;;;;157.40;149.13;;;6.90;99.90;;;;;;5002150;28;20197;-78
2022/01/09 10:15:57;;;;;;;139.40;132.60;;;6.90;99.90;;;;;;5004033;28;20295;-80
2022/01/09 10:18:43;;;;;;;221.20;210.87;;;6.80;99.90;;;;;;5002448;28;20711;-81
2022/01/09 10:21:12;;;;;;;226.33;215.33;;;6.70;99.90;;;;;;5002676;28;20187;-79
2022/01/09 10:24:05;;;;;;;246.33;234.60;;;6.50;99.90;;;;;;5002355;28;20618;-80
2022/01/09 10:26:35;;;;;;;215.17;204.77;;;6.50;99.90;;;;;;5000198;28;20188;-80
2022/01/09 10:29:02;;;;;;;212.00;200.90;;;6.50;99.90;;;;;;4999372;28;20299;-80
2022/01/09 10:31:28;;;;;;;200.73;189.20;;;6.60;99.90;;;;;;4982086;28;20203;-80
2022/01/09 10:34:08;;;;;;;204.60;193.70;;;6.60;99.90;;;;;;5000529;28;20691;-81
2022/01/09 10:36:42;;;;;;;194.83;184.60;;;6.70;99.90;;;;;;5002565;28;20637;-81
2022/01/09 10:39:14;;;;;;;190.73;180.77;;;6.70;99.90;;;;;;5000588;28;20323;-80
2022/01/09 10:41:51;;;;;;;197.83;187.33;;;6.70;99.90;;;;;;5001196;28;20996;-80
2022/01/09 10:44:22;;;;;;;195.23;184.83;;;6.80;99.90;;;;;;5002214;28;20760;-80
2022/01/09 10:47:00;;;;;;;180.40;170.93;;;6.80;99.90;;;;;;5001980;28;20451;-81
2022/01/09 10:49:49;;;;;;;190.60;180.30;;;6.90;99.90;;;;;;5002636;28;20200;-79
2022/01/09 10:52:29;;;;;;;200.47;189.70;;;7.10;99.90;;;;;;5003366;28;20191;-80
2022/01/09 10:55:04;;;;;;;195.57;185.97;;;7.10;99.90;;;;;;5003872;28;20234;-79
2022/01/09 10:57:37;;;;;;;203.10;192.13;;;7.10;99.90;;;;;;5004755;28;20202;-79
2022/01/09 11:00:15;;;;;;;195.53;185.13;;;7.10;99.90;;;;;;5000511;28;20188;-79
2022/01/09 11:02:42;;;;;;;201.40;190.27;;;7.10;99.90;;;;;;5003258;28;20195;-80
2022/01/09 11:05:08;;;;;;;201.97;190.60;;;7.10;99.90;;;;;;5003352;28;20207;-81
2022/01/09 11:07:36;;;;;;;195.10;185.00;;;7.10;99.90;;;;;;5002285;28;21411;-79
2022/01/09 11:10:05;;;;;;;199.37;187.77;;;7.10;99.90;;;;;;4989482;28;20195;-80
2022/01/09 11:12:42;;;;;;;186.67;177.20;;;7.10;99.90;;;;;;5000873;28;20212;-81
2022/01/09 11:15:09;;;;;;;192.07;182.03;;;7.20;99.90;;;;;;5000106;28;20203;-80
2022/01/09 11:17:35;;;;;;;184.53;174.03;;;7.30;99.90;;;;;;5002014;28;20186;-80
2022/01/09 11:20:01;;;;;;;185.27;175.57;;;7.40;99.90;;;;;;4985040;28;20172;-81
2022/01/09 11:22:28;;;;;;;186.33;176.67;;;7.50;99.90;;;;;;5003503;28;20783;-79
2022/01/09 11:25:18;;;;;;;180.23;170.63;;;7.50;99.90;;;;;;5004419;28;20265;-81
2022/01/09 11:27:48;;;;;;;177.70;168.03;;;7.50;99.90;;;;;;5005244;28;20226;-80
2022/01/09 11:30:35;;;;;;;169.83;161.50;;;7.40;99.90;;;;;;4986693;28;20215;-81
2022/01/09 11:33:19;;;;;;;162.70;153.17;;;7.40;99.90;;;;;;5004285;28;20282;-79
2022/01/09 11:36:04;;;;;;;169.03;159.77;;;7.50;99.90;;;;;;5000163;28;20216;-80
2022/01/09 11:38:52;;;;;;;166.60;157.77;;;7.50;99.90;;;;;;5002892;28;20168;-81
2022/01/09 11:41:21;;;;;;;162.07;152.20;;;7.50;99.90;;;;;;5001315;28;20187;-82
2022/01/09 11:44:12;;;;;;;147.33;139.33;;;7.50;99.90;;;;;;5002505;28;20634;-79
2022/01/09 11:47:04;;;;;;;127.10;119.67;;;7.50;99.90;;;;;;5001208;28;20614;-80
2022/01/09 11:49:54;;;;;;;114.43;107.67;;;7.60;99.90;;;;;;5005091;28;20184;-79
2022/01/09 11:52:29;;;;;;;86.20;80.23;;;7.60;99.90;;;;;;5005315;28;20219;-80
2022/01/09 11:55:00;;;;;;;76.30;71.70;;;7.50;99.90;;;;;;5004012;28;20280;-80
2022/01/09 11:57:47;;;;;;;75.83;71.10;;;7.50;99.90;;;;;;5004380;28;20207;-80
2022/01/09 12:00:31;;;;;;;71.60;66.80;;;7.40;99.90;;;;;;5004044;28;20206;-81
2022/01/09 12:02:57;;;;;;;71.33;66.17;;;7.40;99.90;;;;;;5003762;28;20527;-80
2022/01/09 12:05:23;;;;;;;67.87;63.07;;;7.40;99.90;;;;;;5007095;28;20238;-81
2022/01/09 12:07:48;;;;;;;62.20;57.70;;;7.30;99.90;;;;;;5000717;28;20272;-81
2022/01/09 12:10:17;;;;;;;51.17;47.50;;;7.30;99.90;;;;;;5003291;28;20207;-80
2022/01/09 12:12:45;;;;;;;56.53;52.53;;;7.30;99.90;;;;;;5000520;28;20219;-81
2022/01/09 12:15:11;;;;;;;63.23;57.93;;;7.30;99.90;;;;;;5001015;28;20203;-80
2022/01/09 12:17:46;;;;;;;63.57;59.23;;;7.30;99.90;;;;;;5000324;28;20180;-80
2022/01/09 12:20:13;;;;;;;60.10;56.17;;;7.30;99.90;;;;;;5002592;28;20965;-81
2022/01/09 12:22:50;;;;;;;57.43;53.53;;;7.30;99.90;;;;;;4998778;28;20192;-81
2022/01/09 12:25:22;;;;;;;56.30;52.70;;;7.40;99.90;;;;;;4998814;28;20199;-81
2022/01/09 12:27:54;;;;;;;55.70;51.03;;;7.30;99.90;;;;;;5001821;28;20239;-81
2022/01/09 12:30:41;;;;;;;50.77;47.03;;;7.40;99.90;;;;;;5001163;28;20212;-80
2022/01/09 12:33:19;;;;;;;41.77;38.67;;;7.50;99.90;;;;;;4988116;28;20190;-79
2022/01/09 12:36:00;;;;;;;37.63;34.57;;;7.60;99.90;;;;;;4996784;28;20228;-79